sensor_id;sensor_type;location;lat;lon;timestamp;temperature;humidity
44271;DHT22;29963;44.594;11.368;2023-06-14T00:00:22;20.60;99.90
44271;DHT22;29963;44.594;11.368;2023-06-14T00:02:48;20.60;99.90
44271;DHT22;29963;44.594;11.368;2023-06-14T00:05:14;20.50;99.90
44271;DHT22;29963;44.594;11.368;2023-06-14T00:07:41;20.50;99.90
44271;DHT22;29963;44.594;11.368;2023-06-14T00:10:08;20.60;99.90
44271;DHT22;29963;44.594;11.368;2023-06-14T00:12:34;20.60;99.90
44271;DHT22;29963;44.594;11.368;2023-06-14T00:15:00;20.70;99.90
44271;DHT22;29963;44.594;11.368;2023-06-14T00:17:29;20.70;99.90
44271;DHT22;29963;44.594;11.368;2023-06-14T00:19:58;20.70;99.90
44271;DHT22;29963;44.594;11.368;2023-06-14T00:22:24;20.70;99.90
44271;DHT22;29963;44.594;11.368;2023-06-14T00:24:53;20.70;99.90
44271;DHT22;29963;44.594;11.368;2023-06-14T00:27:18;20.60;99.90
44271;DHT22;29963;44.594;11.368;2023-06-14T00:29:44;20.60;99.90
44271;DHT22;29963;44.594;11.368;2023-06-14T00:32:10;20.60;99.90
44271;DHT22;29963;44.594;11.368;2023-06-14T00:34:35;20.50;99.90
44271;DHT22;29963;44.594;11.368;2023-06-14T00:37:01;20.70;99.90
44271;DHT22;29963;44.594;11.368;2023-06-14T00:39:27;20.30;99.90
44271;DHT22;29963;44.594;11.368;2023-06-14T00:41:53;20.30;99.90
44271;DHT22;29963;44.594;11.368;2023-06-14T00:44:19;20.30;99.90
44271;DHT22;29963;44.594;11.368;2023-06-14T00:46:45;20.20;99.90
44271;DHT22;29963;44.594;11.368;2023-06-14T00:49:14;20.20;99.90
44271;DHT22;29963;44.594;11.368;2023-06-14T00:51:43;20.10;99.90
44271;DHT22;29963;44.594;11.368;2023-06-14T00:54:09;20.10;99.90
44271;DHT22;29963;44.594;11.368;2023-06-14T00:56:38;20.00;99.90
44271;DHT22;29963;44.594;11.368;2023-06-14T00:59:04;19.90;99.90
44271;DHT22;29963;44.594;11.368;2023-06-14T01:01:31;19.90;99.90
44271;DHT22;29963;44.594;11.368;2023-06-14T01:03:58;19.90;99.90
44271;DHT22;29963;44.594;11.368;2023-06-14T01:06:35;19.90;99.90
44271;DHT22;29963;44.594;11.368;2023-06-14T01:09:15;19.90;99.90
44271;DHT22;29963;44.594;11.368;2023-06-14T01:12:11;19.90;99.90
44271;DHT22;29963;44.594;11.368;2023-06-14T01:14:38;20.00;99.90
44271;DHT22;29963;44.594;11.368;2023-06-14T01:17:04;20.10;99.90
44271;DHT22;29963;44.594;11.368;2023-06-14T01:19:31;20.10;99.90
44271;DHT22;29963;44.594;11.368;2023-06-14T01:22:01;20.00;99.90
44271;DHT22;29963;44.594;11.368;2023-06-14T01:24:29;20.00;99.90
44271;DHT22;29963;44.594;11.368;2023-06-14T01:26:59;20.00;99.90
44271;DHT22;29963;44.594;11.368;2023-06-14T01:29:25;20.00;99.90
44271;DHT22;29963;44.594;11.368;2023-06-14T01:31:53;20.00;99.90
44271;DHT22;29963;44.594;11.368;2023-06-14T01:34:20;20.00;99.90
44271;DHT22;29963;44.594;11.368;2023-06-14T01:36:46;19.90;99.90
44271;DHT22;29963;44.594;11.368;2023-06-14T01:39:14;19.70;99.90
44271;DHT22;29963;44.594;11.368;2023-06-14T01:41:41;19.70;99.90
44271;DHT22;29963;44.594;11.368;2023-06-14T01:44:12;19.60;99.90
44271;DHT22;29963;44.594;11.368;2023-06-14T01:46:40;19.60;99.90
44271;DHT22;29963;44.594;11.368;2023-06-14T01:49:07;19.60;99.90
44271;DHT22;29963;44.594;11.368;2023-06-14T01:51:33;19.60;99.90
44271;DHT22;29963;44.594;11.368;2023-06-14T01:53:59;19.60;99.90
44271;DHT22;29963;44.594;11.368;2023-06-14T01:56:25;19.50;99.90
44271;DHT22;29963;44.594;11.368;2023-06-14T01:58:51;19.50;99.90
44271;DHT22;29963;44.594;11.368;2023-06-14T02:01:17;19.40;99.90
44271;DHT22;29963;44.594;11.368;2023-06-14T02:03:44;19.40;99.90
44271;DHT22;29963;44.594;11.368;2023-06-14T02:06:10;19.40;99.90
44271;DHT22;29963;44.594;11.368;2023-06-14T02:08:36;19.30;99.90
44271;DHT22;29963;44.594;11.368;2023-06-14T02:11:01;19.20;99.90
44271;DHT22;29963;44.594;11.368;2023-06-14T02:13:27;19.20;99.90
44271;DHT22;29963;44.594;11.368;2023-06-14T02:15:53;19.20;99.90
44271;DHT22;29963;44.594;11.368;2023-06-14T02:18:20;19.20;99.90
44271;DHT22;29963;44.594;11.368;2023-06-14T02:20:47;19.20;99.90
44271;DHT22;29963;44.594;11.368;2023-06-14T02:23:12;19.20;99.90
44271;DHT22;29963;44.594;11.368;2023-06-14T02:25:38;19.10;99.90
44271;DHT22;29963;44.594;11.368;2023-06-14T02:28:05;19.10;99.90
44271;DHT22;29963;44.594;11.368;2023-06-14T02:30:31;19.00;99.90
44271;DHT22;29963;44.594;11.368;2023-06-14T02:32:57;19.00;99.90
44271;DHT22;29963;44.594;11.368;2023-06-14T02:35:22;19.00;99.90
44271;DHT22;29963;44.594;11.368;2023-06-14T02:37:52;19.00;99.90
44271;DHT22;29963;44.594;11.368;2023-06-14T02:40:18;18.90;99.90
44271;DHT22;29963;44.594;11.368;2023-06-14T02:42:44;18.90;99.90
44271;DHT22;29963;44.594;11.368;2023-06-14T02:45:10;18.80;99.90
44271;DHT22;29963;44.594;11.368;2023-06-14T02:47:35;18.90;99.90
44271;DHT22;29963;44.594;11.368;2023-06-14T02:50:01;18.90;99.90
44271;DHT22;29963;44.594;11.368;2023-06-14T02:52:28;19.00;99.90
44271;DHT22;29963;44.594;11.368;2023-06-14T02:54:54;19.00;99.90
44271;DHT22;29963;44.594;11.368;2023-06-14T02:57:20;19.00;99.90
44271;DHT22;29963;44.594;11.368;2023-06-14T02:59:46;18.80;99.90
44271;DHT22;29963;44.594;11.368;2023-06-14T03:02:12;18.80;99.90
44271;DHT22;29963;44.594;11.368;2023-06-14T03:04:37;18.80;99.90
44271;DHT22;29963;44.594;11.368;2023-06-14T03:07:04;18.70;99.90
44271;DHT22;29963;44.594;11.368;2023-06-14T03:09:37;18.60;99.90
44271;DHT22;29963;44.594;11.368;2023-06-14T03:12:04;18.70;99.90
44271;DHT22;29963;44.594;11.368;2023-06-14T03:14:32;18.70;99.90
44271;DHT22;29963;44.594;11.368;2023-06-14T03:16:57;18.70;99.90
44271;DHT22;29963;44.594;11.368;2023-06-14T03:19:24;18.70;99.90
44271;DHT22;29963;44.594;11.368;2023-06-14T03:21:51;18.70;99.90
44271;DHT22;29963;44.594;11.368;2023-06-14T03:24:17;18.70;99.90
44271;DHT22;29963;44.594;11.368;2023-06-14T03:26:43;18.60;99.90
44271;DHT22;29963;44.594;11.368;2023-06-14T03:29:09;18.60;99.90
44271;DHT22;29963;44.594;11.368;2023-06-14T03:31:34;18.60;99.90
44271;DHT22;29963;44.594;11.368;2023-06-14T03:34:03;18.60;99.90
44271;DHT22;29963;44.594;11.368;2023-06-14T03:36:29;18.50;99.90
44271;DHT22;29963;44.594;11.368;2023-06-14T03:38:55;18.60;99.90
44271;DHT22;29963;44.594;11.368;2023-06-14T03:41:20;18.60;99.90
44271;DHT22;29963;44.594;11.368;2023-06-14T03:43:46;18.60;99.90
44271;DHT22;29963;44.594;11.368;2023-06-14T03:46:11;18.60;99.90
44271;DHT22;29963;44.594;11.368;2023-06-14T03:48:37;18.70;99.90
44271;DHT22;29963;44.594;11.368;2023-06-14T03:51:04;18.70;99.90
44271;DHT22;29963;44.594;11.368;2023-06-14T03:53:30;18.70;99.90
44271;DHT22;29963;44.594;11.368;2023-06-14T03:55:56;18.70;99.90
44271;DHT22;29963;44.594;11.368;2023-06-14T03:58:25;18.70;99.90
44271;DHT22;29963;44.594;11.368;2023-06-14T04:00:51;18.70;99.90
44271;DHT22;29963;44.594;11.368;2023-06-14T04:03:16;18.70;99.90
44271;DHT22;29963;44.594;11.368;2023-06-14T04:05:42;18.70;99.90
44271;DHT22;29963;44.594;11.368;2023-06-14T04:08:11;18.70;99.90
44271;DHT22;29963;44.594;11.368;2023-06-14T04:10:40;18.70;99.90
44271;DHT22;29963;44.594;11.368;2023-06-14T04:13:05;18.70;99.90
44271;DHT22;29963;44.594;11.368;2023-06-14T04:15:32;18.80;99.90
44271;DHT22;29963;44.594;11.368;2023-06-14T04:17:58;18.80;99.90
44271;DHT22;29963;44.594;11.368;2023-06-14T04:20:24;18.80;99.90
44271;DHT22;29963;44.594;11.368;2023-06-14T04:22:51;18.80;99.90
44271;DHT22;29963;44.594;11.368;2023-06-14T04:25:18;18.80;99.90
44271;DHT22;29963;44.594;11.368;2023-06-14T04:27:43;18.70;99.90
44271;DHT22;29963;44.594;11.368;2023-06-14T04:30:09;18.70;99.90
44271;DHT22;29963;44.594;11.368;2023-06-14T04:32:35;18.60;99.90
44271;DHT22;29963;44.594;11.368;2023-06-14T04:35:08;18.60;99.90
44271;DHT22;29963;44.594;11.368;2023-06-14T04:37:33;18.40;99.90
44271;DHT22;29963;44.594;11.368;2023-06-14T04:39:59;18.70;99.90
44271;DHT22;29963;44.594;11.368;2023-06-14T04:42:25;18.70;99.90
44271;DHT22;29963;44.594;11.368;2023-06-14T04:44:56;18.80;99.90
44271;DHT22;29963;44.594;11.368;2023-06-14T04:47:22;18.90;99.90
44271;DHT22;29963;44.594;11.368;2023-06-14T04:49:50;18.80;99.90
44271;DHT22;29963;44.594;11.368;2023-06-14T04:52:18;18.80;99.90
44271;DHT22;29963;44.594;11.368;2023-06-14T04:54:46;18.80;99.90
44271;DHT22;29963;44.594;11.368;2023-06-14T04:57:12;18.80;99.90
44271;DHT22;29963;44.594;11.368;2023-06-14T04:59:45;18.90;99.90
44271;DHT22;29963;44.594;11.368;2023-06-14T05:02:11;18.90;99.90
44271;DHT22;29963;44.594;11.368;2023-06-14T05:04:37;19.00;99.90
44271;DHT22;29963;44.594;11.368;2023-06-14T05:07:08;19.00;99.90
44271;DHT22;29963;44.594;11.368;2023-06-14T05:09:37;19.10;99.90
44271;DHT22;29963;44.594;11.368;2023-06-14T05:12:03;19.10;99.90
44271;DHT22;29963;44.594;11.368;2023-06-14T05:14:29;19.00;99.90
44271;DHT22;29963;44.594;11.368;2023-06-14T05:16:55;19.00;99.90
44271;DHT22;29963;44.594;11.368;2023-06-14T05:19:20;19.00;99.90
44271;DHT22;29963;44.594;11.368;2023-06-14T05:21:47;19.00;99.90
44271;DHT22;29963;44.594;11.368;2023-06-14T05:24:13;19.00;99.90
44271;DHT22;29963;44.594;11.368;2023-06-14T05:26:39;19.00;99.90
44271;DHT22;29963;44.594;11.368;2023-06-14T05:29:05;19.00;99.90
44271;DHT22;29963;44.594;11.368;2023-06-14T05:31:30;19.00;99.90
44271;DHT22;29963;44.594;11.368;2023-06-14T05:33:56;19.10;99.90
44271;DHT22;29963;44.594;11.368;2023-06-14T05:36:22;19.40;99.90
44271;DHT22;29963;44.594;11.368;2023-06-14T05:38:47;19.20;99.90
44271;DHT22;29963;44.594;11.368;2023-06-14T05:41:13;19.30;99.90
44271;DHT22;29963;44.594;11.368;2023-06-14T05:43:39;19.30;99.90
44271;DHT22;29963;44.594;11.368;2023-06-14T05:46:05;19.40;99.90
44271;DHT22;29963;44.594;11.368;2023-06-14T05:48:30;19.40;99.90
44271;DHT22;29963;44.594;11.368;2023-06-14T05:50:56;19.40;99.90
44271;DHT22;29963;44.594;11.368;2023-06-14T05:53:22;19.50;99.90
44271;DHT22;29963;44.594;11.368;2023-06-14T05:55:47;19.60;99.90
44271;DHT22;29963;44.594;11.368;2023-06-14T05:58:13;19.70;99.90
44271;DHT22;29963;44.594;11.368;2023-06-14T06:00:39;19.80;99.90
44271;DHT22;29963;44.594;11.368;2023-06-14T06:03:05;19.90;99.90
44271;DHT22;29963;44.594;11.368;2023-06-14T06:05:33;19.90;99.90
44271;DHT22;29963;44.594;11.368;2023-06-14T06:07:59;19.90;99.90
44271;DHT22;29963;44.594;11.368;2023-06-14T06:10:25;20.00;99.90
44271;DHT22;29963;44.594;11.368;2023-06-14T06:12:51;20.10;99.90
44271;DHT22;29963;44.594;11.368;2023-06-14T06:15:17;20.10;99.90
44271;DHT22;29963;44.594;11.368;2023-06-14T06:17:44;20.10;99.90
44271;DHT22;29963;44.594;11.368;2023-06-14T06:20:10;20.10;99.90
44271;DHT22;29963;44.594;11.368;2023-06-14T06:22:37;20.10;99.90
44271;DHT22;29963;44.594;11.368;2023-06-14T06:25:03;20.10;99.90
44271;DHT22;29963;44.594;11.368;2023-06-14T06:27:29;20.10;99.90
44271;DHT22;29963;44.594;11.368;2023-06-14T06:29:55;20.20;99.90
44271;DHT22;29963;44.594;11.368;2023-06-14T06:32:21;20.20;99.90
44271;DHT22;29963;44.594;11.368;2023-06-14T06:34:47;20.30;99.90
44271;DHT22;29963;44.594;11.368;2023-06-14T06:37:13;20.30;99.90
44271;DHT22;29963;44.594;11.368;2023-06-14T06:39:39;20.40;99.90
44271;DHT22;29963;44.594;11.368;2023-06-14T06:42:05;20.40;99.90
44271;DHT22;29963;44.594;11.368;2023-06-14T06:44:32;20.50;99.90
44271;DHT22;29963;44.594;11.368;2023-06-14T06:46:57;20.60;99.90
44271;DHT22;29963;44.594;11.368;2023-06-14T06:49:23;20.60;99.90
44271;DHT22;29963;44.594;11.368;2023-06-14T06:52:07;20.70;99.90
44271;DHT22;29963;44.594;11.368;2023-06-14T06:54:33;20.90;99.90
44271;DHT22;29963;44.594;11.368;2023-06-14T06:56:59;21.00;99.90
44271;DHT22;29963;44.594;11.368;2023-06-14T06:59:26;21.20;99.90
44271;DHT22;29963;44.594;11.368;2023-06-14T07:01:51;21.30;99.90
44271;DHT22;29963;44.594;11.368;2023-06-14T07:04:17;21.40;99.90
44271;DHT22;29963;44.594;11.368;2023-06-14T07:06:43;21.40;99.90
44271;DHT22;29963;44.594;11.368;2023-06-14T07:09:09;21.30;99.90
44271;DHT22;29963;44.594;11.368;2023-06-14T07:11:39;21.40;99.90
44271;DHT22;29963;44.594;11.368;2023-06-14T07:14:05;21.50;99.90
44271;DHT22;29963;44.594;11.368;2023-06-14T07:16:31;21.60;99.90
44271;DHT22;29963;44.594;11.368;2023-06-14T07:18:57;21.70;99.90
44271;DHT22;29963;44.594;11.368;2023-06-14T07:21:23;21.70;99.90
44271;DHT22;29963;44.594;11.368;2023-06-14T07:23:51;21.80;99.90
44271;DHT22;29963;44.594;11.368;2023-06-14T07:26:16;21.90;99.90
44271;DHT22;29963;44.594;11.368;2023-06-14T07:28:42;22.00;99.90
44271;DHT22;29963;44.594;11.368;2023-06-14T07:31:10;22.00;99.90
44271;DHT22;29963;44.594;11.368;2023-06-14T07:33:36;22.00;99.90
44271;DHT22;29963;44.594;11.368;2023-06-14T07:36:02;22.00;99.90
44271;DHT22;29963;44.594;11.368;2023-06-14T07:38:28;22.10;99.90
44271;DHT22;29963;44.594;11.368;2023-06-14T07:40:54;22.20;99.90
44271;DHT22;29963;44.594;11.368;2023-06-14T07:43:19;22.40;99.90
44271;DHT22;29963;44.594;11.368;2023-06-14T07:45:45;22.50;99.90
44271;DHT22;29963;44.594;11.368;2023-06-14T07:48:11;22.40;99.90
44271;DHT22;29963;44.594;11.368;2023-06-14T07:50:37;22.50;99.90
44271;DHT22;29963;44.594;11.368;2023-06-14T07:53:02;22.50;99.90
44271;DHT22;29963;44.594;11.368;2023-06-14T07:55:28;22.60;99.90
44271;DHT22;29963;44.594;11.368;2023-06-14T07:57:54;22.60;99.90
44271;DHT22;29963;44.594;11.368;2023-06-14T08:00:20;22.70;99.90
44271;DHT22;29963;44.594;11.368;2023-06-14T08:02:46;22.80;99.90
44271;DHT22;29963;44.594;11.368;2023-06-14T08:05:12;23.00;99.90
44271;DHT22;29963;44.594;11.368;2023-06-14T08:07:38;23.10;99.90
44271;DHT22;29963;44.594;11.368;2023-06-14T08:10:05;23.10;99.90
44271;DHT22;29963;44.594;11.368;2023-06-14T08:12:32;23.20;99.90
44271;DHT22;29963;44.594;11.368;2023-06-14T08:14:58;23.20;99.90
44271;DHT22;29963;44.594;11.368;2023-06-14T08:17:23;23.20;99.90
44271;DHT22;29963;44.594;11.368;2023-06-14T08:19:49;23.20;99.90
44271;DHT22;29963;44.594;11.368;2023-06-14T08:22:15;23.10;99.90
44271;DHT22;29963;44.594;11.368;2023-06-14T08:24:42;23.20;99.90
44271;DHT22;29963;44.594;11.368;2023-06-14T08:27:07;23.30;99.90
44271;DHT22;29963;44.594;11.368;2023-06-14T08:29:34;23.40;99.90
44271;DHT22;29963;44.594;11.368;2023-06-14T08:31:59;23.50;99.90
44271;DHT22;29963;44.594;11.368;2023-06-14T08:34:25;23.60;99.90
44271;DHT22;29963;44.594;11.368;2023-06-14T08:36:51;23.70;99.90
44271;DHT22;29963;44.594;11.368;2023-06-14T08:39:17;23.80;99.90
44271;DHT22;29963;44.594;11.368;2023-06-14T08:41:46;23.80;99.90
44271;DHT22;29963;44.594;11.368;2023-06-14T08:44:12;23.80;99.90
44271;DHT22;29963;44.594;11.368;2023-06-14T08:46:41;23.90;99.90
44271;DHT22;29963;44.594;11.368;2023-06-14T08:49:08;23.90;99.90
44271;DHT22;29963;44.594;11.368;2023-06-14T08:51:36;24.00;99.90
44271;DHT22;29963;44.594;11.368;2023-06-14T08:54:03;24.10;99.90
44271;DHT22;29963;44.594;11.368;2023-06-14T08:56:30;24.20;99.90
44271;DHT22;29963;44.594;11.368;2023-06-14T08:58:57;24.20;99.90
44271;DHT22;29963;44.594;11.368;2023-06-14T09:01:27;24.40;99.90
44271;DHT22;29963;44.594;11.368;2023-06-14T09:03:52;24.50;99.90
44271;DHT22;29963;44.594;11.368;2023-06-14T09:06:21;24.60;99.90
44271;DHT22;29963;44.594;11.368;2023-06-14T09:08:48;24.60;99.90
44271;DHT22;29963;44.594;11.368;2023-06-14T09:11:15;24.70;99.90
44271;DHT22;29963;44.594;11.368;2023-06-14T09:13:41;24.70;99.90
44271;DHT22;29963;44.594;11.368;2023-06-14T09:16:08;24.80;99.90
44271;DHT22;29963;44.594;11.368;2023-06-14T09:18:38;24.80;99.90
44271;DHT22;29963;44.594;11.368;2023-06-14T09:21:06;24.90;99.90
44271;DHT22;29963;44.594;11.368;2023-06-14T09:23:44;25.00;99.90
44271;DHT22;29963;44.594;11.368;2023-06-14T09:26:18;25.00;99.90
44271;DHT22;29963;44.594;11.368;2023-06-14T09:28:49;25.00;99.90
44271;DHT22;29963;44.594;11.368;2023-06-14T09:31:19;24.90;99.90
44271;DHT22;29963;44.594;11.368;2023-06-14T09:33:47;24.90;99.90
44271;DHT22;29963;44.594;11.368;2023-06-14T09:39:12;24.90;99.90
44271;DHT22;29963;44.594;11.368;2023-06-14T09:41:41;25.00;99.90
44271;DHT22;29963;44.594;11.368;2023-06-14T09:44:09;25.00;99.90
44271;DHT22;29963;44.594;11.368;2023-06-14T09:46:36;25.00;99.90
44271;DHT22;29963;44.594;11.368;2023-06-14T09:49:03;25.00;99.90
44271;DHT22;29963;44.594;11.368;2023-06-14T09:51:29;25.10;99.90
44271;DHT22;29963;44.594;11.368;2023-06-14T09:54:02;25.10;99.90
44271;DHT22;29963;44.594;11.368;2023-06-14T09:56:38;25.20;99.90
44271;DHT22;29963;44.594;11.368;2023-06-14T09:59:06;25.20;99.90
44271;DHT22;29963;44.594;11.368;2023-06-14T10:01:35;25.30;99.90
44271;DHT22;29963;44.594;11.368;2023-06-14T10:04:09;25.30;99.90
44271;DHT22;29963;44.594;11.368;2023-06-14T10:06:40;25.30;99.90
44271;DHT22;29963;44.594;11.368;2023-06-14T10:09:10;25.30;99.90
44271;DHT22;29963;44.594;11.368;2023-06-14T10:11:37;25.40;99.90
44271;DHT22;29963;44.594;11.368;2023-06-14T10:14:06;25.50;99.90
44271;DHT22;29963;44.594;11.368;2023-06-14T10:19:50;25.70;99.90
44271;DHT22;29963;44.594;11.368;2023-06-14T10:22:29;25.80;99.90
44271;DHT22;29963;44.594;11.368;2023-06-14T10:24:59;25.80;99.90
44271;DHT22;29963;44.594;11.368;2023-06-14T10:27:24;25.90;99.90
44271;DHT22;29963;44.594;11.368;2023-06-14T10:32:19;26.00;99.90
44271;DHT22;29963;44.594;11.368;2023-06-14T10:34:45;26.00;99.90
44271;DHT22;29963;44.594;11.368;2023-06-14T10:37:13;26.10;99.90
44271;DHT22;29963;44.594;11.368;2023-06-14T10:39:44;26.20;99.90
44271;DHT22;29963;44.594;11.368;2023-06-14T10:42:11;26.30;99.90
44271;DHT22;29963;44.594;11.368;2023-06-14T10:44:50;26.30;99.90
44271;DHT22;29963;44.594;11.368;2023-06-14T10:49:57;26.30;99.90
44271;DHT22;29963;44.594;11.368;2023-06-14T10:52:25;26.30;99.90
44271;DHT22;29963;44.594;11.368;2023-06-14T10:57:33;26.30;99.90
44271;DHT22;29963;44.594;11.368;2023-06-14T11:00:00;26.30;99.90
44271;DHT22;29963;44.594;11.368;2023-06-14T11:05:30;26.40;99.90
44271;DHT22;29963;44.594;11.368;2023-06-14T11:10:43;26.50;99.90
44271;DHT22;29963;44.594;11.368;2023-06-14T11:13:11;26.50;99.90
44271;DHT22;29963;44.594;11.368;2023-06-14T11:15:37;26.50;99.90
44271;DHT22;29963;44.594;11.368;2023-06-14T11:18:07;26.40;99.90
44271;DHT22;29963;44.594;11.368;2023-06-14T11:20:35;26.40;99.90
44271;DHT22;29963;44.594;11.368;2023-06-14T11:23:02;26.40;99.90
44271;DHT22;29963;44.594;11.368;2023-06-14T11:25:28;26.30;99.90
44271;DHT22;29963;44.594;11.368;2023-06-14T11:27:54;26.30;99.90
44271;DHT22;29963;44.594;11.368;2023-06-14T11:30:21;26.30;99.90
44271;DHT22;29963;44.594;11.368;2023-06-14T11:32:47;26.40;99.90
44271;DHT22;29963;44.594;11.368;2023-06-14T11:35:13;26.50;99.90
44271;DHT22;29963;44.594;11.368;2023-06-14T11:37:39;26.60;99.90
44271;DHT22;29963;44.594;11.368;2023-06-14T11:40:08;26.60;99.90
44271;DHT22;29963;44.594;11.368;2023-06-14T11:42:35;26.50;99.90
44271;DHT22;29963;44.594;11.368;2023-06-14T11:45:01;26.50;99.90
44271;DHT22;29963;44.594;11.368;2023-06-14T11:47:40;26.50;99.90
44271;DHT22;29963;44.594;11.368;2023-06-14T11:50:07;26.60;99.90
44271;DHT22;29963;44.594;11.368;2023-06-14T11:52:34;26.70;99.90
44271;DHT22;29963;44.594;11.368;2023-06-14T11:55:02;26.80;99.90
44271;DHT22;29963;44.594;11.368;2023-06-14T11:57:34;26.90;99.90
44271;DHT22;29963;44.594;11.368;2023-06-14T12:00:03;26.90;99.90
44271;DHT22;29963;44.594;11.368;2023-06-14T12:02:31;27.00;99.90
44271;DHT22;29963;44.594;11.368;2023-06-14T12:05:04;27.00;99.90
44271;DHT22;29963;44.594;11.368;2023-06-14T12:07:30;27.00;99.90
44271;DHT22;29963;44.594;11.368;2023-06-14T12:12:22;27.20;99.90
44271;DHT22;29963;44.594;11.368;2023-06-14T12:14:50;27.20;99.90
44271;DHT22;29963;44.594;11.368;2023-06-14T12:17:17;27.20;99.90
44271;DHT22;29963;44.594;11.368;2023-06-14T12:19:44;27.20;99.90
44271;DHT22;29963;44.594;11.368;2023-06-14T12:22:11;27.20;99.90
44271;DHT22;29963;44.594;11.368;2023-06-14T12:24:37;27.10;99.90
44271;DHT22;29963;44.594;11.368;2023-06-14T12:27:03;27.00;99.90
44271;DHT22;29963;44.594;11.368;2023-06-14T12:29:32;26.90;99.90
44271;DHT22;29963;44.594;11.368;2023-06-14T12:31:58;26.70;99.90
44271;DHT22;29963;44.594;11.368;2023-06-14T12:34:24;26.70;99.90
44271;DHT22;29963;44.594;11.368;2023-06-14T12:36:50;26.70;99.90
44271;DHT22;29963;44.594;11.368;2023-06-14T12:39:16;26.90;99.90
44271;DHT22;29963;44.594;11.368;2023-06-14T12:41:42;26.90;99.90
44271;DHT22;29963;44.594;11.368;2023-06-14T12:44:07;26.90;99.90
44271;DHT22;29963;44.594;11.368;2023-06-14T12:46:34;26.90;99.90
44271;DHT22;29963;44.594;11.368;2023-06-14T12:49:00;26.80;99.90
44271;DHT22;29963;44.594;11.368;2023-06-14T12:51:26;26.80;99.90
44271;DHT22;29963;44.594;11.368;2023-06-14T12:53:52;26.90;99.90
44271;DHT22;29963;44.594;11.368;2023-06-14T12:56:18;26.90;99.90
44271;DHT22;29963;44.594;11.368;2023-06-14T12:58:43;26.90;99.90
44271;DHT22;29963;44.594;11.368;2023-06-14T13:01:09;27.00;99.90
44271;DHT22;29963;44.594;11.368;2023-06-14T13:03:35;27.00;99.90
44271;DHT22;29963;44.594;11.368;2023-06-14T13:06:01;27.00;99.90
44271;DHT22;29963;44.594;11.368;2023-06-14T13:08:27;27.10;99.90
44271;DHT22;29963;44.594;11.368;2023-06-14T13:10:56;27.20;99.90
44271;DHT22;29963;44.594;11.368;2023-06-14T13:13:21;27.20;99.90
44271;DHT22;29963;44.594;11.368;2023-06-14T13:15:47;27.30;99.90
44271;DHT22;29963;44.594;11.368;2023-06-14T13:18:14;27.40;99.90
44271;DHT22;29963;44.594;11.368;2023-06-14T13:20:40;27.50;99.90
44271;DHT22;29963;44.594;11.368;2023-06-14T13:23:05;27.50;99.90
44271;DHT22;29963;44.594;11.368;2023-06-14T13:25:36;27.60;99.90
44271;DHT22;29963;44.594;11.368;2023-06-14T13:28:03;27.60;99.90
44271;DHT22;29963;44.594;11.368;2023-06-14T13:30:29;27.80;99.90
44271;DHT22;29963;44.594;11.368;2023-06-14T13:32:55;27.80;99.90
44271;DHT22;29963;44.594;11.368;2023-06-14T13:35:22;28.00;99.90
44271;DHT22;29963;44.594;11.368;2023-06-14T13:37:48;28.10;99.90
44271;DHT22;29963;44.594;11.368;2023-06-14T13:40:13;28.20;99.90
44271;DHT22;29963;44.594;11.368;2023-06-14T13:42:39;28.30;99.90
44271;DHT22;29963;44.594;11.368;2023-06-14T13:45:06;28.30;99.90
44271;DHT22;29963;44.594;11.368;2023-06-14T13:47:32;28.10;99.90
44271;DHT22;29963;44.594;11.368;2023-06-14T13:49:58;28.00;99.90
44271;DHT22;29963;44.594;11.368;2023-06-14T13:52:24;27.90;99.90
44271;DHT22;29963;44.594;11.368;2023-06-14T13:54:50;27.80;99.90
44271;DHT22;29963;44.594;11.368;2023-06-14T13:57:19;27.70;99.90
44271;DHT22;29963;44.594;11.368;2023-06-14T13:59:45;27.60;99.90
44271;DHT22;29963;44.594;11.368;2023-06-14T14:02:11;27.50;99.90
44271;DHT22;29963;44.594;11.368;2023-06-14T14:04:37;27.50;99.90
44271;DHT22;29963;44.594;11.368;2023-06-14T14:07:06;27.40;99.90
44271;DHT22;29963;44.594;11.368;2023-06-14T14:09:33;27.40;99.90
44271;DHT22;29963;44.594;11.368;2023-06-14T14:12:00;27.30;99.90
44271;DHT22;29963;44.594;11.368;2023-06-14T14:14:27;27.20;99.90
44271;DHT22;29963;44.594;11.368;2023-06-14T14:16:53;27.20;99.90
44271;DHT22;29963;44.594;11.368;2023-06-14T14:19:20;27.20;99.90
44271;DHT22;29963;44.594;11.368;2023-06-14T14:21:47;27.10;99.90
44271;DHT22;29963;44.594;11.368;2023-06-14T14:24:13;27.20;99.90
44271;DHT22;29963;44.594;11.368;2023-06-14T14:26:39;27.10;99.90
44271;DHT22;29963;44.594;11.368;2023-06-14T14:29:05;27.20;99.90
44271;DHT22;29963;44.594;11.368;2023-06-14T14:31:31;27.20;99.90
44271;DHT22;29963;44.594;11.368;2023-06-14T14:33:57;27.20;99.90
44271;DHT22;29963;44.594;11.368;2023-06-14T14:36:23;27.20;99.90
44271;DHT22;29963;44.594;11.368;2023-06-14T14:38:48;27.20;99.90
44271;DHT22;29963;44.594;11.368;2023-06-14T14:41:14;27.20;99.90
44271;DHT22;29963;44.594;11.368;2023-06-14T14:43:40;27.20;99.90
44271;DHT22;29963;44.594;11.368;2023-06-14T14:46:05;27.20;99.90
44271;DHT22;29963;44.594;11.368;2023-06-14T14:48:31;27.20;99.90
44271;DHT22;29963;44.594;11.368;2023-06-14T14:50:57;27.20;99.90
44271;DHT22;29963;44.594;11.368;2023-06-14T14:53:23;27.20;99.90
44271;DHT22;29963;44.594;11.368;2023-06-14T14:55:49;27.20;99.90
44271;DHT22;29963;44.594;11.368;2023-06-14T14:58:14;27.20;99.90
44271;DHT22;29963;44.594;11.368;2023-06-14T15:00:47;27.30;99.90
44271;DHT22;29963;44.594;11.368;2023-06-14T15:03:13;27.30;99.90
44271;DHT22;29963;44.594;11.368;2023-06-14T15:05:39;27.30;99.90
44271;DHT22;29963;44.594;11.368;2023-06-14T15:08:05;27.30;99.90
44271;DHT22;29963;44.594;11.368;2023-06-14T15:10:37;27.40;99.90
44271;DHT22;29963;44.594;11.368;2023-06-14T15:13:03;27.40;99.90
44271;DHT22;29963;44.594;11.368;2023-06-14T15:15:28;27.40;99.90
44271;DHT22;29963;44.594;11.368;2023-06-14T15:17:54;27.40;99.90
44271;DHT22;29963;44.594;11.368;2023-06-14T15:20:20;27.40;99.90
44271;DHT22;29963;44.594;11.368;2023-06-14T15:22:45;27.40;99.90
44271;DHT22;29963;44.594;11.368;2023-06-14T15:25:11;27.50;99.90
44271;DHT22;29963;44.594;11.368;2023-06-14T15:27:37;27.50;99.90
44271;DHT22;29963;44.594;11.368;2023-06-14T15:30:02;27.60;99.90
44271;DHT22;29963;44.594;11.368;2023-06-14T15:32:31;27.70;99.90
44271;DHT22;29963;44.594;11.368;2023-06-14T15:34:57;27.90;99.90